createdAt,value
2023-03-27T00:00:39.775Z,9.062
2023-03-27T00:01:42.921Z,9.062
2023-03-27T00:02:38.378Z,9.062
2023-03-27T00:03:37.504Z,9.051
2023-03-27T00:04:37.232Z,9.062
2023-03-27T00:05:37.478Z,9.041
2023-03-27T00:06:37.574Z,9
2023-03-27T00:07:37.560Z,9
2023-03-27T00:08:37.225Z,9
2023-03-27T00:09:37.695Z,9
2023-03-27T00:10:37.633Z,9
2023-03-27T00:11:36.561Z,8.947
2023-03-27T00:12:37.479Z,8.968
2023-03-27T00:13:49.206Z,9
2023-03-27T00:14:51.259Z,9
2023-03-27T00:16:55.140Z,8.989
2023-03-27T00:17:36.919Z,8.968
2023-03-27T00:18:37.302Z,8.937
2023-03-27T00:19:37.192Z,8.937
2023-03-27T00:20:37.077Z,8.937
2023-03-27T00:21:37.185Z,8.937
2023-03-27T00:22:37.427Z,8.926
2023-03-27T00:23:37.437Z,8.926
2023-03-27T00:24:37.387Z,8.895
2023-03-27T00:25:37.460Z,8.926
2023-03-27T00:26:37.195Z,8.937
2023-03-27T00:27:37.486Z,8.937
2023-03-27T00:28:37.371Z,8.937
2023-03-27T00:29:37.516Z,8.937
2023-03-27T00:30:37.278Z,8.937
2023-03-27T00:31:37.599Z,8.937
2023-03-27T00:32:37.992Z,8.937
2023-03-27T00:33:37.285Z,8.937
2023-03-27T00:34:37.050Z,8.885
2023-03-27T00:35:37.304Z,8.875
2023-03-27T00:36:37.699Z,8.875
2023-03-27T00:37:37.648Z,8.875
2023-03-27T00:39:09.199Z,8.875
2023-03-27T00:39:40.168Z,8.875
2023-03-27T00:40:37.416Z,8.875
2023-03-27T00:41:37.448Z,8.875
2023-03-27T00:42:37.115Z,8.875
2023-03-27T00:43:37.134Z,8.875
2023-03-27T00:44:38.640Z,8.866
2023-03-27T00:45:37.409Z,8.849
2023-03-27T00:46:37.868Z,8.866
2023-03-27T00:47:37.748Z,8.837
2023-03-27T00:48:37.439Z,8.866
2023-03-27T00:49:37.648Z,8.837
2023-03-27T00:50:37.465Z,8.812
2023-03-27T00:51:37.271Z,8.812
2023-03-27T00:52:36.789Z,8.812
2023-03-27T00:53:37.417Z,8.812
2023-03-27T00:54:37.422Z,8.812
2023-03-27T00:55:37.550Z,8.812
2023-03-27T00:56:37.185Z,8.812
2023-03-27T00:57:37.336Z,8.812
2023-03-27T00:58:36.932Z,8.812
2023-03-27T00:59:37.781Z,8.781
2023-03-27T01:00:38.555Z,8.770
2023-03-27T01:01:37.518Z,8.812
2023-03-27T01:02:37.699Z,8.812
2023-03-27T01:03:37.632Z,8.812
2023-03-27T01:04:37.523Z,8.781
2023-03-27T01:05:37.797Z,8.770
2023-03-27T01:06:37.715Z,8.770
2023-03-27T01:07:38.225Z,8.760
2023-03-27T01:08:37.236Z,8.75
2023-03-27T01:09:37.444Z,8.75
2023-03-27T01:10:37.601Z,8.75
2023-03-27T01:11:37.800Z,8.75
2023-03-27T01:12:37.579Z,8.739
2023-03-27T01:13:36.813Z,8.75
2023-03-27T01:14:37.713Z,8.75
2023-03-27T01:15:37.865Z,8.75
2023-03-27T01:16:37.706Z,8.75
2023-03-27T01:17:38.121Z,8.75
2023-03-27T01:18:37.240Z,8.75
2023-03-27T01:19:37.559Z,8.729
2023-03-27T01:20:37.436Z,8.708
2023-03-27T01:21:37.677Z,8.708
2023-03-27T01:22:37.430Z,8.687
2023-03-27T01:24:19.688Z,8.75
2023-03-27T01:24:48.063Z,8.729
2023-03-27T01:25:37.143Z,8.708
2023-03-27T01:26:50.721Z,8.687
2023-03-27T01:27:37.804Z,8.687
2023-03-27T01:28:37.514Z,8.687
2023-03-27T01:29:38.105Z,8.687
2023-03-27T01:30:37.841Z,8.687
2023-03-27T01:31:38.442Z,8.687
2023-03-27T01:32:37.389Z,8.687
2023-03-27T01:33:37.362Z,8.687
2023-03-27T01:34:37.360Z,8.666
2023-03-27T01:35:37.875Z,8.666
2023-03-27T01:36:37.312Z,8.625
2023-03-27T01:37:37.339Z,8.625
2023-03-27T01:38:36.683Z,8.625
2023-03-27T01:39:37.712Z,8.625
2023-03-27T01:40:37.410Z,8.625
2023-03-27T01:41:37.134Z,8.625
2023-03-27T01:42:37.143Z,8.625
2023-03-27T01:43:37.084Z,8.604
2023-03-27T01:44:44.626Z,8.625
2023-03-27T01:45:37.859Z,8.625
2023-03-27T01:46:38.042Z,8.625
2023-03-27T01:47:37.103Z,8.614
2023-03-27T01:48:37.145Z,8.572
2023-03-27T01:49:37.308Z,8.562
2023-03-27T01:50:37.215Z,8.572
2023-03-27T01:51:37.226Z,8.583
2023-03-27T01:52:37.213Z,8.562
2023-03-27T01:53:37.004Z,8.562
2023-03-27T01:54:37.057Z,8.583
2023-03-27T01:55:37.115Z,8.562
2023-03-27T01:56:36.889Z,8.562
2023-03-27T01:57:48.886Z,8.531
2023-03-27T01:58:37.607Z,8.562
2023-03-27T01:59:37.700Z,7.099
2023-03-27T02:00:51.333Z,8.562
2023-03-27T02:01:37.684Z,8.562
2023-03-27T02:02:37.963Z,8.562
2023-03-27T02:03:36.575Z,8.551
2023-03-27T02:04:37.640Z,8.510
2023-03-27T02:05:37.896Z,8.531
2023-03-27T02:06:38.226Z,8.510
2023-03-27T02:07:37.206Z,8.531
2023-03-27T02:08:38.036Z,8.510
2023-03-27T02:09:37.353Z,8.5
2023-03-27T02:10:37.750Z,8.5
2023-03-27T02:11:37.178Z,8.5
2023-03-27T02:12:37.206Z,8.5
2023-03-27T02:13:37.645Z,8.512
2023-03-27T02:14:37.485Z,8.5
2023-03-27T02:15:39.985Z,8.5
2023-03-27T02:16:36.879Z,8.5
2023-03-27T02:17:38.021Z,8.5
2023-03-27T02:18:36.985Z,8.5
2023-03-27T02:19:37.688Z,8.474
2023-03-27T02:20:37.822Z,8.482
2023-03-27T02:21:37.453Z,8.474
2023-03-27T02:22:52.775Z,8.5
2023-03-27T02:23:37.287Z,8.5
2023-03-27T02:24:37.149Z,8.5
2023-03-27T02:25:37.228Z,8.437
2023-03-27T02:26:37.769Z,8.437
2023-03-27T02:27:46.072Z,8.437
2023-03-27T02:28:36.676Z,8.437
2023-03-27T02:29:37.817Z,8.437
2023-03-27T02:30:38.229Z,8.437
2023-03-27T02:31:48.264Z,8.437
2023-03-27T02:32:37.559Z,8.437
2023-03-27T02:33:37.276Z,8.437
2023-03-27T02:34:37.788Z,8.437
2023-03-27T02:35:38.099Z,8.437
2023-03-27T02:36:37.246Z,8.437
2023-03-27T02:37:46.320Z,8.437
2023-03-27T02:38:37.498Z,8.426
2023-03-27T02:39:37.870Z,8.416
2023-03-27T02:40:39.771Z,8.426
2023-03-27T02:41:37.110Z,8.437
2023-03-27T02:42:36.724Z,8.437
2023-03-27T02:43:37.443Z,8.437
2023-03-27T02:44:46.288Z,8.385
2023-03-27T02:45:37.511Z,8.395
2023-03-27T02:46:37.316Z,8.375
2023-03-27T02:47:38.268Z,8.385
2023-03-27T02:48:37.199Z,8.385
2023-03-27T02:49:37.354Z,8.426
2023-03-27T02:50:37.593Z,8.406
2023-03-27T02:51:37.941Z,8.416
2023-03-27T02:52:38.292Z,8.385
2023-03-27T02:53:37.271Z,8.375
2023-03-27T02:54:37.539Z,8.375
2023-03-27T02:55:37.348Z,8.385
2023-03-27T02:56:37.503Z,8.375
2023-03-27T02:57:39.460Z,8.375
2023-03-27T02:58:37.028Z,8.375
2023-03-27T02:59:37.560Z,8.395
2023-03-27T03:00:39.285Z,8.426
2023-03-27T03:01:37.824Z,8.375
2023-03-27T03:02:38.188Z,8.375
2023-03-27T03:03:37.630Z,8.375
2023-03-27T03:04:37.755Z,8.375
2023-03-27T03:05:37.830Z,8.375
2023-03-27T03:06:38.366Z,8.375
2023-03-27T03:07:37.973Z,8.375
2023-03-27T03:08:37.513Z,8.375
2023-03-27T03:09:40.413Z,8.375
2023-03-27T03:10:37.577Z,8.375
2023-03-27T03:11:38.242Z,8.375
2023-03-27T03:12:37.229Z,8.375
2023-03-27T03:13:36.702Z,8.343
2023-03-27T03:14:37.272Z,8.364
2023-03-27T03:15:37.584Z,8.375
2023-03-27T03:16:37.471Z,8.375
2023-03-27T03:17:38.332Z,8.375
2023-03-27T03:18:37.629Z,8.375
2023-03-27T03:19:37.771Z,8.375
2023-03-27T03:20:38.578Z,8.375
2023-03-27T03:21:37.728Z,8.333
2023-03-27T03:22:37.608Z,8.312
2023-03-27T03:23:37.591Z,8.312
2023-03-27T03:24:37.695Z,8.354
2023-03-27T03:25:37.692Z,8.312
2023-03-27T03:26:37.784Z,8.312
2023-03-27T03:27:37.927Z,8.312
2023-03-27T03:28:37.780Z,8.312
2023-03-27T03:29:38.048Z,8.312
2023-03-27T03:30:37.582Z,8.312
2023-03-27T03:31:37.953Z,8.312
2023-03-27T03:32:37.811Z,8.312
2023-03-27T03:33:37.822Z,8.312
2023-03-27T03:34:37.632Z,8.312
2023-03-27T03:35:38.516Z,8.312
2023-03-27T03:36:38.144Z,8.312
2023-03-27T03:37:37.318Z,8.312
2023-03-27T03:38:38.069Z,8.291
2023-03-27T03:39:37.709Z,8.301
2023-03-27T03:40:37.586Z,8.301
2023-03-27T03:41:37.734Z,8.260
2023-03-27T03:42:38.700Z,8.301
2023-03-27T03:43:37.784Z,8.312
2023-03-27T03:44:37.954Z,8.312
2023-03-27T03:45:38.087Z,8.301
2023-03-27T03:46:37.473Z,8.260
2023-03-27T03:47:37.863Z,8.274
2023-03-27T03:48:38.137Z,8.303
2023-03-27T03:49:37.750Z,8.281
2023-03-27T03:50:38.469Z,8.25
2023-03-27T03:51:38.301Z,8.281
2023-03-27T03:52:37.893Z,8.260
2023-03-27T03:53:37.980Z,8.274
2023-03-27T03:54:36.822Z,8.25
2023-03-27T03:55:37.662Z,8.25
2023-03-27T03:56:38.387Z,8.25
2023-03-27T03:57:37.898Z,8.25
2023-03-27T03:58:49.272Z,8.25
2023-03-27T03:59:37.812Z,8.25
2023-03-27T04:00:39.383Z,8.25
2023-03-27T04:01:37.811Z,8.25
2023-03-27T04:02:38.468Z,8.25
2023-03-27T04:03:37.976Z,8.25
2023-03-27T04:04:37.676Z,8.25
2023-03-27T04:05:38.650Z,8.25
2023-03-27T04:06:38.437Z,8.25
2023-03-27T04:07:38.073Z,8.25
2023-03-27T04:08:37.359Z,8.232
2023-03-27T04:09:37.946Z,8.187
2023-03-27T04:10:38.654Z,8.187
2023-03-27T04:11:37.534Z,8.197
2023-03-27T04:12:38.015Z,8.239
2023-03-27T04:13:37.672Z,8.25
2023-03-27T04:14:38.740Z,8.25
2023-03-27T04:15:38.559Z,8.239
2023-03-27T04:16:37.706Z,8.208
2023-03-27T04:17:37.979Z,8.187
2023-03-27T04:18:37.386Z,8.229
2023-03-27T04:19:37.987Z,8.187
2023-03-27T04:20:38.384Z,8.145
2023-03-27T04:21:37.653Z,8.125
2023-03-27T04:22:38.352Z,8.145
2023-03-27T04:23:37.788Z,8.135
2023-03-27T04:24:38.493Z,8.156
2023-03-27T04:25:38.641Z,8.187
2023-03-27T04:26:38.623Z,8.187
2023-03-27T04:27:37.816Z,8.176
2023-03-27T04:28:38.356Z,8.125
2023-03-27T04:29:38.491Z,8.125
2023-03-27T04:30:38.706Z,8.125
2023-03-27T04:31:38.600Z,8.125
2023-03-27T04:32:38.929Z,8.125
2023-03-27T04:33:38.181Z,8.114
2023-03-27T04:34:37.791Z,8.072
2023-03-27T04:35:38.400Z,8.125
2023-03-27T04:36:38.477Z,8.125
2023-03-27T04:37:39.036Z,8.125
2023-03-27T04:38:42.856Z,8.125
2023-03-27T04:39:39.474Z,8.125
2023-03-27T04:40:43.115Z,8.125
2023-03-27T04:41:38.128Z,8.125
2023-03-27T04:42:38.060Z,8.104
2023-03-27T04:43:37.937Z,8.114
2023-03-27T04:44:39.113Z,8.125
2023-03-27T04:45:38.057Z,8.072
2023-03-27T04:46:37.726Z,8.093
2023-03-27T04:47:38.474Z,8.062
2023-03-27T04:48:38.076Z,8.062
2023-03-27T04:49:37.580Z,8.062
2023-03-27T04:50:46.214Z,8.062
2023-03-27T04:51:38.013Z,8.062
2023-03-27T04:52:45.506Z,8.062
2023-03-27T04:53:37.919Z,8.062
2023-03-27T04:54:38.909Z,8.062
2023-03-27T04:55:38.411Z,8.062
2023-03-27T04:56:38.835Z,8.062
2023-03-27T04:57:38.263Z,8.062
2023-03-27T04:58:37.871Z,8.051
2023-03-27T04:59:37.885Z,8.010
2023-03-27T05:00:39.883Z,8.051
2023-03-27T05:01:38.426Z,7.989
2023-03-27T05:02:52.771Z,8.041
2023-03-27T05:03:38.564Z,8.083
2023-03-27T05:04:38.005Z,8.062
2023-03-27T05:05:38.595Z,8.104
2023-03-27T05:06:39.307Z,8.125
2023-03-27T05:07:38.301Z,8.125
2023-03-27T05:08:37.650Z,8.125
2023-03-27T05:09:38.539Z,8.125
2023-03-27T05:10:38.041Z,8.072
2023-03-27T05:11:37.994Z,8.125
2023-03-27T05:12:37.733Z,8.125
2023-03-27T05:13:38.107Z,8.093
2023-03-27T05:14:38.179Z,8.062
2023-03-27T05:15:38.051Z,8.031
2023-03-27T05:16:38.745Z,8.041
2023-03-27T05:17:37.851Z,8.041
2023-03-27T05:18:38.560Z,8.093
2023-03-27T05:19:40.995Z,8.125
2023-03-27T05:20:37.980Z,8.125
2023-03-27T05:21:38.070Z,8.087
2023-03-27T05:22:38.709Z,8.062
2023-03-27T05:23:38.467Z,8.010
2023-03-27T05:25:00.353Z,8
2023-03-27T05:25:37.444Z,8.087
2023-03-27T05:26:38.629Z,8.133
2023-03-27T05:27:38.654Z,8.125
2023-03-27T05:28:38.449Z,8.125
2023-03-27T05:29:46.480Z,8.162
2023-03-27T05:30:46.874Z,8.142
2023-03-27T05:31:38.743Z,8.162
2023-03-27T05:32:37.960Z,8.151
2023-03-27T05:33:38.437Z,8.062
2023-03-27T05:34:38.374Z,8.125
2023-03-27T05:35:38.135Z,8.125
2023-03-27T05:36:38.128Z,8.187
2023-03-27T05:37:39.461Z,8.162
2023-03-27T05:38:38.082Z,8.178
2023-03-27T05:39:37.768Z,8.125
2023-03-27T05:40:38.563Z,8.135
2023-03-27T05:41:38.782Z,8.187
2023-03-27T05:42:38.161Z,8.145
2023-03-27T05:43:37.395Z,8.125
2023-03-27T05:44:38.113Z,8.176
2023-03-27T05:45:37.993Z,8.187
2023-03-27T05:46:37.704Z,8.123
2023-03-27T05:47:38.949Z,8.112
2023-03-27T05:48:37.599Z,8.166
2023-03-27T05:49:38.271Z,8.187
2023-03-27T05:50:37.842Z,8.187
2023-03-27T05:51:38.841Z,6.800
2023-03-27T05:52:43.571Z,8.156
2023-03-27T05:53:43.126Z,8.187
2023-03-27T05:54:37.890Z,8.187
2023-03-27T05:55:41.808Z,8.187
2023-03-27T05:56:37.994Z,8.197
2023-03-27T05:57:37.796Z,8.197
2023-03-27T05:58:37.640Z,8.197
2023-03-27T05:59:38.639Z,8.25
2023-03-27T06:01:10.516Z,8.25
2023-03-27T06:01:42.670Z,8.218
2023-03-27T06:02:39.282Z,8.187
2023-03-27T06:03:38.780Z,8.187
2023-03-27T06:04:38.471Z,8.156
2023-03-27T06:05:38.526Z,8.25
2023-03-27T06:06:38.844Z,8.239
2023-03-27T06:07:40.853Z,8.197
2023-03-27T06:08:38.430Z,8.25
2023-03-27T06:09:38.421Z,8.25
2023-03-27T06:10:37.929Z,8.25
2023-03-27T06:11:38.942Z,8.25
2023-03-27T06:12:38.790Z,8.239
2023-03-27T06:13:38.146Z,8.197
2023-03-27T06:14:38.181Z,8.229
2023-03-27T06:15:38.362Z,8.208
2023-03-27T06:16:37.665Z,8.25
2023-03-27T06:17:38.477Z,8.25
2023-03-27T06:18:37.566Z,8.229
2023-03-27T06:19:38.188Z,8.25
2023-03-27T06:20:39.288Z,8.25
2023-03-27T06:21:40.940Z,8.25
2023-03-27T06:22:39.238Z,8.25
2023-03-27T06:23:39.702Z,8.260
2023-03-27T06:24:38.758Z,8.229
2023-03-27T06:25:39.590Z,8.176
2023-03-27T06:26:39.359Z,8.218
2023-03-27T06:27:38.130Z,8.25
2023-03-27T06:28:37.246Z,8.270
2023-03-27T06:29:37.563Z,8.25
2023-03-27T06:30:38.330Z,8.260
2023-03-27T06:31:37.267Z,8.25
2023-03-27T06:32:38.151Z,8.291
2023-03-27T06:33:37.122Z,8.25
2023-03-27T06:34:38.064Z,8.25
2023-03-27T06:35:37.519Z,8.270
2023-03-27T06:36:37.978Z,8.312
2023-03-27T06:37:37.768Z,8.312
2023-03-27T06:38:38.285Z,8.312
2023-03-27T06:39:38.137Z,8.281
2023-03-27T06:40:38.815Z,8.25
2023-03-27T06:41:38.548Z,8.270
2023-03-27T06:42:38.041Z,8.291
2023-03-27T06:43:37.669Z,8.260
2023-03-27T06:44:38.460Z,8.312
2023-03-27T06:45:38.513Z,8.260
2023-03-27T06:46:47.197Z,8.281
2023-03-27T06:47:44.748Z,8.312
2023-03-27T06:48:40.836Z,8.260
2023-03-27T06:49:38.150Z,8.187
2023-03-27T06:50:37.654Z,8.204
2023-03-27T06:51:38.389Z,8.25
2023-03-27T06:52:38.436Z,8.25
2023-03-27T06:53:42.949Z,8.299
2023-03-27T06:54:38.753Z,8.258
2023-03-27T06:55:38.279Z,8.25
2023-03-27T06:56:38.342Z,8.25
2023-03-27T06:57:38.113Z,8.299
2023-03-27T06:58:37.880Z,8.25
2023-03-27T06:59:38.985Z,8.212
2023-03-27T07:00:40.450Z,8.25
2023-03-27T07:01:39.115Z,8.25
2023-03-27T07:02:38.313Z,8.285
2023-03-27T07:03:38.237Z,8.287
2023-03-27T07:04:38.859Z,8.187
2023-03-27T07:05:38.369Z,8.187
2023-03-27T07:06:39.660Z,8.187
2023-03-27T07:07:41.051Z,8.262
2023-03-27T07:08:39.788Z,8.312
2023-03-27T07:09:40.083Z,8.229
2023-03-27T07:10:38.222Z,8.197
2023-03-27T07:11:38.177Z,8.281
2023-03-27T07:12:37.835Z,8.312
2023-03-27T07:13:38.757Z,8.25
2023-03-27T07:14:38.815Z,8.25
2023-03-27T07:15:39.214Z,8.187
2023-03-27T07:16:38.286Z,8.176
2023-03-27T07:17:48.116Z,8.166
2023-03-27T07:18:37.992Z,8.229
2023-03-27T07:19:38.075Z,8.239
2023-03-27T07:20:38.671Z,8.25
2023-03-27T07:21:38.401Z,8.187
2023-03-27T07:22:37.794Z,8.187
2023-03-27T07:23:38.577Z,8.239
2023-03-27T07:24:38.262Z,8.197
2023-03-27T07:25:37.906Z,8.208
2023-03-27T07:26:38.208Z,8.260
2023-03-27T07:27:51.783Z,8.312
2023-03-27T07:28:37.905Z,8.312
2023-03-27T07:29:38.346Z,8.312
2023-03-27T07:30:38.494Z,8.312
2023-03-27T07:31:59.703Z,8.301
2023-03-27T07:32:51.523Z,8.25
2023-03-27T07:33:38.973Z,8.301
2023-03-27T07:34:37.796Z,8.312
2023-03-27T07:35:43.042Z,8.291
2023-03-27T07:36:37.545Z,8.25
2023-03-27T07:37:43.104Z,8.281
2023-03-27T07:38:37.165Z,8.312
2023-03-27T07:39:41.161Z,8.312
2023-03-27T07:40:47.743Z,8.312
2023-03-27T07:41:43.121Z,8.312
2023-03-27T07:42:37.957Z,8.312
2023-03-27T07:43:38.810Z,8.239
2023-03-27T07:44:38.621Z,8.218
2023-03-27T07:45:38.944Z,8.25
2023-03-27T07:46:37.827Z,8.25
2023-03-27T07:47:43.465Z,8.291
2023-03-27T07:48:37.988Z,8.312
2023-03-27T07:49:54.932Z,8.270
2023-03-27T07:50:39.172Z,8.291
2023-03-27T07:51:37.968Z,8.312
2023-03-27T07:52:38.149Z,8.312
2023-03-27T07:53:48.682Z,8.312
2023-03-27T07:54:38.176Z,8.312
2023-03-27T07:55:38.265Z,8.301
2023-03-27T07:56:38.062Z,8.312
2023-03-27T07:58:00.900Z,8.281
2023-03-27T07:58:38.259Z,8.301
2023-03-27T07:59:52.031Z,8.25
2023-03-27T08:00:38.901Z,8.25
2023-03-27T08:01:52.478Z,8.25
2023-03-27T08:02:38.147Z,8.25
2023-03-27T08:03:38.238Z,8.229
2023-03-27T08:04:38.388Z,8.229
2023-03-27T08:05:38.733Z,8.208
2023-03-27T08:06:38.308Z,8.239
2023-03-27T08:07:37.507Z,8.25
2023-03-27T08:08:38.039Z,8.301
2023-03-27T08:09:56.540Z,8.312
2023-03-27T08:10:37.934Z,8.312
2023-03-27T08:11:45.883Z,8.312
2023-03-27T08:12:38.069Z,8.312
2023-03-27T08:13:37.697Z,8.312
2023-03-27T08:14:38.056Z,8.270
2023-03-27T08:15:57.566Z,8.25
2023-03-27T08:16:37.770Z,8.291
2023-03-27T08:17:38.197Z,8.312
2023-03-27T08:18:38.503Z,8.260
2023-03-27T08:19:38.353Z,8.291
2023-03-27T08:20:38.369Z,8.270
2023-03-27T08:21:37.879Z,8.301
2023-03-27T08:22:38.769Z,8.260
2023-03-27T08:23:38.304Z,8.301
2023-03-27T08:24:38.202Z,8.322
2023-03-27T08:25:38.424Z,8.375
2023-03-27T08:26:38.144Z,8.312
2023-03-27T08:27:37.567Z,8.312
2023-03-27T08:28:37.406Z,8.366
2023-03-27T08:29:38.116Z,8.375
2023-03-27T08:30:38.294Z,8.338
2023-03-27T08:32:38.030Z,8.312
2023-03-27T08:33:37.509Z,8.337
2023-03-27T08:34:38.085Z,8.375
2023-03-27T08:35:37.674Z,8.375
2023-03-27T08:36:37.917Z,8.329
2023-03-27T08:37:38.585Z,8.312
2023-03-27T08:38:41.421Z,8.347
2023-03-27T08:39:37.993Z,8.375
2023-03-27T08:40:38.445Z,8.357
2023-03-27T08:41:37.781Z,8.312
2023-03-27T08:42:37.912Z,8.312
2023-03-27T08:43:38.269Z,8.349
2023-03-27T08:44:37.789Z,8.375
2023-03-27T08:45:38.715Z,8.375
2023-03-27T08:46:38.355Z,8.375
2023-03-27T08:47:37.358Z,8.375
2023-03-27T08:48:38.190Z,8.343
2023-03-27T08:49:37.452Z,8.375
2023-03-27T08:50:37.659Z,8.375
2023-03-27T08:51:37.850Z,8.375
2023-03-27T08:52:37.450Z,8.426
2023-03-27T08:53:38.175Z,8.437
2023-03-27T08:54:38.431Z,8.437
2023-03-27T08:55:38.490Z,8.385
2023-03-27T08:56:37.917Z,8.437
2023-03-27T08:57:38.632Z,8.437
2023-03-27T08:58:38.134Z,8.437
2023-03-27T08:59:37.588Z,8.437
2023-03-27T09:00:38.861Z,8.385
2023-03-27T09:01:38.758Z,8.375
2023-03-27T09:02:38.294Z,8.364
2023-03-27T09:03:38.157Z,8.343
2023-03-27T09:04:37.830Z,8.375
2023-03-27T09:05:37.992Z,8.375
2023-03-27T09:06:37.989Z,8.375
2023-03-27T09:07:37.677Z,8.375
2023-03-27T09:08:37.128Z,8.375
2023-03-27T09:09:38.104Z,8.333
2023-03-27T09:10:37.889Z,8.312
2023-03-27T09:11:38.130Z,8.343
2023-03-27T09:12:38.315Z,8.375
2023-03-27T09:13:37.554Z,8.375
2023-03-27T09:14:38.055Z,8.385
2023-03-27T09:15:38.047Z,8.375
2023-03-27T09:16:36.699Z,8.375
2023-03-27T09:17:38.101Z,8.375
2023-03-27T09:18:37.912Z,8.343
2023-03-27T09:19:38.429Z,8.312
2023-03-27T09:20:37.816Z,8.312
2023-03-27T09:21:38.004Z,8.322
2023-03-27T09:22:37.450Z,8.312
2023-03-27T09:23:37.447Z,8.364
2023-03-27T09:24:38.126Z,8.375
2023-03-27T09:25:38.280Z,8.375
2023-03-27T09:26:42.669Z,8.333
2023-03-27T09:27:38.146Z,8.322
2023-03-27T09:28:42.141Z,8.375
2023-03-27T09:29:37.833Z,8.364
2023-03-27T09:30:42.588Z,8.375
2023-03-27T09:31:37.994Z,8.375
2023-03-27T09:32:48.624Z,8.375
2023-03-27T09:33:38.196Z,8.322
2023-03-27T09:34:37.731Z,8.375
2023-03-27T09:35:38.777Z,8.375
2023-03-27T09:36:38.144Z,8.375
2023-03-27T09:37:38.374Z,8.312
2023-03-27T09:38:38.087Z,8.312
2023-03-27T09:39:37.225Z,8.343
2023-03-27T09:40:37.925Z,8.375
2023-03-27T09:41:38.088Z,8.385
2023-03-27T09:42:38.073Z,8.395
2023-03-27T09:43:39.267Z,8.416
2023-03-27T09:44:38.396Z,8.437
2023-03-27T09:45:38.047Z,8.437
2023-03-27T09:46:51.845Z,8.375
2023-03-27T09:47:38.827Z,8.364
2023-03-27T09:48:38.243Z,8.375
2023-03-27T09:49:38.222Z,8.395
2023-03-27T09:50:40.584Z,8.395
2023-03-27T09:51:38.098Z,8.375
2023-03-27T09:52:38.439Z,8.375
2023-03-27T09:53:37.979Z,8.375
2023-03-27T09:54:38.000Z,8.375
2023-03-27T09:55:38.331Z,8.375
2023-03-27T09:56:38.489Z,8.416
2023-03-27T09:57:37.852Z,8.437
2023-03-27T09:58:38.632Z,8.437
2023-03-27T09:59:38.864Z,8.437
2023-03-27T10:00:53.358Z,8.375
2023-03-27T10:01:37.992Z,8.424
2023-03-27T10:02:56.972Z,8.383
2023-03-27T10:03:38.098Z,8.437
2023-03-27T10:04:43.260Z,8.437
2023-03-27T10:05:38.180Z,8.437
2023-03-27T10:06:38.058Z,8.437
2023-03-27T10:07:37.847Z,8.487
2023-03-27T10:08:41.351Z,8.437
2023-03-27T10:09:38.508Z,8.437
2023-03-27T10:10:38.029Z,8.437
2023-03-27T10:11:36.795Z,8.437
2023-03-27T10:12:38.851Z,8.437
2023-03-27T10:13:38.038Z,8.424
2023-03-27T10:14:37.390Z,8.395
2023-03-27T10:15:38.263Z,8.375
2023-03-27T10:16:38.060Z,8.343
2023-03-27T10:17:37.962Z,8.312
2023-03-27T10:18:37.544Z,8.312
2023-03-27T10:19:38.807Z,8.312
2023-03-27T10:20:39.245Z,8.312
2023-03-27T10:21:38.338Z,8.375
2023-03-27T10:22:38.073Z,8.343
2023-03-27T10:23:37.964Z,8.354
2023-03-27T10:24:45.534Z,8.375
2023-03-27T10:25:38.695Z,8.375
2023-03-27T10:26:38.425Z,8.375
2023-03-27T10:27:37.840Z,8.375
2023-03-27T10:28:39.243Z,8.375
2023-03-27T10:29:40.989Z,8.375
2023-03-27T10:30:39.057Z,8.375
2023-03-27T10:31:38.253Z,8.385
2023-03-27T10:32:38.238Z,8.437
2023-03-27T10:33:38.727Z,8.437
2023-03-27T10:34:39.645Z,8.437
2023-03-27T10:35:38.686Z,8.437
2023-03-27T10:36:38.640Z,8.458
2023-03-27T10:37:38.483Z,8.468
2023-03-27T10:38:38.322Z,8.437
2023-03-27T10:39:37.659Z,8.437
2023-03-27T10:40:38.198Z,8.437
2023-03-27T10:41:43.592Z,8.437
2023-03-27T10:42:38.253Z,8.437
2023-03-27T10:43:37.086Z,8.437
2023-03-27T10:44:37.848Z,8.437
2023-03-27T10:45:38.891Z,8.437
2023-03-27T10:46:38.828Z,8.437
2023-03-27T10:47:38.543Z,8.437
2023-03-27T10:48:38.385Z,8.437
2023-03-27T10:49:38.529Z,8.437
2023-03-27T10:50:38.273Z,8.416
2023-03-27T10:51:46.412Z,8.406
2023-03-27T10:52:38.860Z,8.437
2023-03-27T10:53:38.528Z,8.437
2023-03-27T10:54:39.370Z,8.437
2023-03-27T10:55:39.077Z,8.437
2023-03-27T10:56:38.832Z,8.437
2023-03-27T10:57:38.704Z,8.447
2023-03-27T10:58:38.461Z,8.437
2023-03-27T10:59:55.643Z,8.437
2023-03-27T11:00:39.634Z,8.468
2023-03-27T11:01:39.156Z,8.479
2023-03-27T11:02:37.796Z,8.5
2023-03-27T11:03:38.157Z,8.5
2023-03-27T11:04:38.045Z,8.5
2023-03-27T11:05:39.862Z,8.468
2023-03-27T11:06:41.353Z,8.437
2023-03-27T11:07:38.141Z,8.447
2023-03-27T11:08:38.275Z,8.437
2023-03-27T11:09:39.260Z,8.458
2023-03-27T11:10:38.445Z,8.489
2023-03-27T11:11:38.397Z,8.5
2023-03-27T11:12:38.435Z,8.5
2023-03-27T11:13:38.779Z,8.5
2023-03-27T11:14:38.691Z,8.5
2023-03-27T11:15:38.985Z,8.447
2023-03-27T11:16:38.691Z,8.5
2023-03-27T11:17:44.126Z,8.5
2023-03-27T11:18:38.511Z,8.5
2023-03-27T11:19:38.392Z,8.5
2023-03-27T11:20:40.782Z,8.479
2023-03-27T11:21:38.545Z,8.5
2023-03-27T11:22:37.703Z,8.447
2023-03-27T11:23:38.642Z,8.437
2023-03-27T11:24:38.842Z,8.437
2023-03-27T11:25:39.111Z,8.462
2023-03-27T11:26:38.278Z,8.454
2023-03-27T11:27:38.416Z,8.449
2023-03-27T11:28:37.863Z,8.491
2023-03-27T11:29:39.122Z,8.487
2023-03-27T11:30:38.757Z,8.472
2023-03-27T11:31:39.185Z,8.437
2023-03-27T11:32:38.381Z,8.437
2023-03-27T11:33:38.323Z,8.437
2023-03-27T11:34:44.169Z,8.472
2023-03-27T11:35:38.330Z,8.5
2023-03-27T11:36:38.199Z,8.5
2023-03-27T11:37:38.527Z,8.5
2023-03-27T11:38:38.611Z,8.5
2023-03-27T11:39:38.097Z,8.5
2023-03-27T11:40:37.747Z,8.5
2023-03-27T11:41:38.712Z,8.5
2023-03-27T11:42:38.863Z,8.5
2023-03-27T11:43:38.673Z,8.5
2023-03-27T11:44:38.232Z,8.5
2023-03-27T11:45:38.533Z,8.5
2023-03-27T11:46:38.322Z,8.5
2023-03-27T11:47:38.576Z,8.5
2023-03-27T11:48:38.830Z,8.5
2023-03-27T11:49:38.338Z,8.5
2023-03-27T11:50:38.565Z,8.5
2023-03-27T11:51:38.114Z,8.5
2023-03-27T11:52:38.390Z,8.5
2023-03-27T11:53:42.744Z,8.5
2023-03-27T11:54:38.461Z,8.5
2023-03-27T11:55:47.121Z,8.5
2023-03-27T11:56:38.273Z,8.5
2023-03-27T11:57:38.059Z,8.5
2023-03-27T11:58:38.048Z,8.510
2023-03-27T11:59:42.965Z,8.5
2023-03-27T12:00:40.088Z,8.510
2023-03-27T12:01:39.190Z,8.5
2023-03-27T12:02:38.646Z,8.5
2023-03-27T12:03:38.516Z,8.5
2023-03-27T12:04:38.785Z,8.5
2023-03-27T12:05:46.816Z,8.551
2023-03-27T12:06:39.304Z,8.562
2023-03-27T12:07:50.721Z,8.541
2023-03-27T12:08:39.221Z,8.562
2023-03-27T12:09:38.227Z,8.551
2023-03-27T12:10:43.429Z,8.531
2023-03-27T12:11:38.175Z,8.510
2023-03-27T12:12:38.082Z,8.5
2023-03-27T12:13:52.112Z,8.5
2023-03-27T12:14:46.631Z,8.510
2023-03-27T12:15:38.946Z,8.562
2023-03-27T12:16:38.986Z,8.562
2023-03-27T12:17:38.133Z,8.562
2023-03-27T12:19:02.140Z,8.562
2023-03-27T12:19:41.719Z,8.562
2023-03-27T12:20:51.909Z,8.541
2023-03-27T12:21:51.670Z,8.562
2023-03-27T12:22:39.282Z,8.562
2023-03-27T12:23:37.525Z,8.562
2023-03-27T12:24:40.605Z,8.562
2023-03-27T12:25:38.437Z,8.562
2023-03-27T12:26:38.510Z,8.562
2023-03-27T12:27:38.261Z,8.562
2023-03-27T12:28:40.776Z,8.562
2023-03-27T12:29:39.408Z,8.562
2023-03-27T12:30:39.004Z,8.551
2023-03-27T12:31:44.150Z,8.541
2023-03-27T12:32:38.268Z,8.520
2023-03-27T12:33:38.108Z,8.541
2023-03-27T12:34:40.592Z,8.562
2023-03-27T12:35:41.761Z,8.562
2023-03-27T12:36:41.866Z,8.562
2023-03-27T12:37:44.856Z,8.562
2023-03-27T12:38:42.656Z,8.562
2023-03-27T12:39:46.650Z,8.562
2023-03-27T12:40:42.294Z,8.562
2023-03-27T12:42:00.793Z,8.562
2023-03-27T12:42:44.070Z,8.562
2023-03-27T12:43:41.136Z,8.572
2023-03-27T12:44:41.338Z,8.593
2023-03-27T12:46:00.810Z,8.625
2023-03-27T12:46:41.536Z,8.572
2023-03-27T12:47:40.369Z,8.583
2023-03-27T12:48:41.529Z,8.562
2023-03-27T12:49:57.124Z,8.625
2023-03-27T12:50:42.019Z,8.625
2023-03-27T12:51:41.670Z,8.625
2023-03-27T12:52:42.077Z,8.625
2023-03-27T12:53:41.203Z,8.625
2023-03-27T12:54:41.396Z,8.625
2023-03-27T12:55:41.475Z,8.625
2023-03-27T12:56:43.310Z,8.625
2023-03-27T12:57:41.194Z,8.625
2023-03-27T12:58:41.437Z,8.625
2023-03-27T12:59:42.245Z,8.612
2023-03-27T13:00:44.404Z,8.625
2023-03-27T13:01:51.730Z,8.625